createdAt,value
2022-09-02T00:02:42.707Z,451.09
2022-09-02T00:08:14.660Z,451.35
2022-09-02T00:13:46.616Z,451.69
2022-09-02T00:19:18.670Z,452.04
2022-09-02T00:24:50.551Z,452.22
2022-09-02T00:30:22.261Z,452.74
2022-09-02T00:35:54.201Z,452.74
2022-09-02T00:41:25.985Z,452.91
2022-09-02T00:46:57.867Z,453.26
2022-09-02T00:52:29.699Z,453.61
2022-09-02T00:58:01.338Z,453.61
2022-09-02T01:03:32.864Z,454.13
2022-09-02T01:09:04.733Z,454.13
2022-09-02T01:14:36.284Z,454.30
2022-09-02T01:25:39.776Z,453.96
2022-09-02T01:31:11.487Z,453.96
2022-09-02T01:36:43.096Z,453.96
2022-09-02T01:42:14.851Z,454.48
2022-09-02T01:47:46.818Z,454.83
2022-09-02T01:53:19.174Z,455.17
2022-09-02T01:58:51.314Z,455.35
2022-09-02T02:04:22.728Z,455.78
2022-09-02T02:09:54.912Z,455.78
2022-09-02T02:17:49.259Z,456.13
2022-09-02T02:23:21.145Z,456.30
2022-09-02T02:28:52.780Z,456.65
2022-09-02T02:34:24.607Z,456.65
2022-09-02T02:39:56.403Z,456.65
2022-09-02T02:45:28.311Z,456.83
2022-09-02T02:56:31.882Z,457.52
2022-09-02T03:02:03.644Z,457.35
2022-09-02T03:07:35.093Z,457.52
2022-09-02T03:13:07.072Z,457.87
2022-09-02T03:18:38.812Z,458.22
2022-09-02T03:24:10.440Z,458.39
2022-09-02T03:29:42.078Z,458.39
2022-09-02T03:35:13.832Z,458.74
2022-09-02T03:40:45.711Z,458.39
2022-09-02T03:46:17.320Z,458.74
2022-09-02T03:51:49.528Z,458.74
2022-09-02T03:57:21.564Z,459.09
2022-09-02T04:02:53.547Z,459.09
2022-09-02T04:08:25.336Z,459.44
2022-09-02T04:13:56.939Z,459.61
2022-09-02T04:19:28.619Z,459.79
2022-09-02T04:25:00.432Z,459.79
2022-09-02T04:30:32.127Z,459.61
2022-09-02T04:36:03.658Z,459.61
2022-09-02T04:47:09.135Z,459.61
2022-09-02T04:52:41.103Z,459.61
2022-09-02T04:58:12.942Z,459.79
2022-09-02T05:03:44.817Z,459.61
2022-09-02T05:09:16.505Z,459.26
2022-09-02T05:14:48.272Z,458.92
2022-09-02T05:20:20.129Z,458.74
2022-09-02T05:25:52.082Z,458.92
2022-09-02T05:31:23.759Z,459.09
2022-09-02T05:36:55.649Z,459.26
2022-09-02T05:44:47.588Z,458.92
2022-09-02T05:55:48.796Z,458.92
2022-09-02T06:01:20.668Z,459.09
2022-09-02T06:06:52.371Z,459.26
2022-09-02T06:17:53.767Z,459.26
2022-09-02T06:23:25.316Z,459.79
2022-09-02T06:28:57.241Z,459.79
2022-09-02T06:34:28.931Z,460.13
2022-09-02T06:40:00.633Z,460.13
2022-09-02T06:45:32.759Z,460.22
2022-09-02T06:51:04.602Z,460.57
2022-09-02T06:56:36.225Z,461.44
2022-09-02T07:02:08.303Z,461.44
2022-09-02T07:07:39.565Z,460.39
2022-09-02T07:13:11.736Z,460.57
2022-09-02T07:18:43.374Z,460.22
2022-09-02T07:24:15.194Z,460.13
2022-09-02T07:29:47.202Z,460.22
2022-09-02T07:43:07.655Z,460.74
2022-09-02T07:48:39.564Z,460.74
2022-09-02T07:54:11.422Z,460.74
2022-09-02T08:02:03.288Z,461.44
2022-09-02T08:07:35.216Z,461.61
2022-09-02T08:13:06.943Z,461.79
2022-09-02T08:24:08.548Z,462.31
2022-09-02T08:29:40.136Z,462.14
2022-09-02T08:35:11.890Z,462.31
2022-09-02T08:40:43.796Z,462.83
2022-09-02T08:46:15.542Z,463.18
2022-09-02T08:51:47.211Z,463.53
2022-09-02T08:57:19.045Z,463.88
2022-09-02T09:02:51.039Z,464.05
2022-09-02T09:08:22.704Z,463.70
2022-09-02T09:13:54.347Z,464.05
2022-09-02T09:24:55.949Z,464.05
2022-09-02T09:30:27.812Z,464.05
2022-09-02T09:35:59.499Z,464.83
2022-09-02T09:47:01.281Z,465.18
2022-09-02T09:52:33.122Z,465.71
2022-09-02T09:58:04.764Z,465.88
2022-09-02T10:03:36.475Z,466.23
2022-09-02T10:09:08.174Z,466.23
2022-09-02T10:14:40.123Z,466.40
2022-09-02T10:20:11.953Z,466.58
2022-09-02T10:27:56.325Z,466.92
2022-09-02T10:38:57.667Z,467.27
2022-09-02T10:44:29.525Z,467.62
2022-09-02T10:55:32.097Z,468.32
2022-09-02T11:01:04.059Z,468.84
2022-09-02T11:06:51.809Z,468.93
2022-09-02T11:17:39.495Z,469.62
2022-09-02T11:28:42.912Z,470.50
2022-09-02T11:39:54.488Z,471.02
2022-09-02T11:45:18.459Z,471.37
2022-09-02T11:50:50.263Z,471.37
2022-09-02T11:56:22.039Z,471.72
2022-09-02T12:01:53.701Z,471.37
2022-09-02T12:07:26.777Z,472.06
2022-09-02T12:12:57.163Z,472.59
2022-09-02T12:18:28.901Z,472.59
2022-09-02T12:24:00.990Z,472.94
2022-09-02T12:29:32.832Z,472.94
2022-09-02T12:35:05.287Z,472.59
2022-09-02T12:40:36.550Z,473.20
2022-09-02T12:46:08.804Z,473.02
2022-09-02T12:51:40.545Z,473.55
2022-09-02T12:57:12.688Z,473.72
2022-09-02T13:08:15.356Z,473.89
2022-09-02T13:13:47.388Z,474.42
2022-09-02T13:19:20.805Z,474.94
2022-09-02T13:24:52.470Z,475.29
2022-09-02T13:30:24.215Z,475.46
2022-09-02T13:41:27.710Z,476.16
2022-09-02T13:46:59.593Z,476.68
2022-09-02T13:53:34.311Z,477.03
2022-09-02T14:00:23.732Z,477.38
2022-09-02T14:05:55.580Z,477.56
2022-09-02T14:11:27.244Z,477.38
2022-09-02T14:16:59.802Z,477.73
2022-09-02T14:22:31.355Z,477.99
2022-09-02T14:28:02.945Z,478.34
2022-09-02T14:33:34.658Z,478.86
2022-09-02T14:39:06.581Z,479.56
2022-09-02T14:44:38.061Z,479.91
2022-09-02T14:50:09.959Z,480.43
2022-09-02T14:55:41.647Z,480.78
2022-09-02T15:01:13.659Z,481.30
2022-09-02T15:06:45.489Z,481.65
2022-09-02T15:12:20.124Z,482.09
2022-09-02T15:17:48.666Z,482.09
2022-09-02T15:23:20.718Z,482.44
2022-09-02T15:34:24.331Z,482.26
2022-09-02T15:39:56.277Z,482.26
2022-09-02T15:45:27.947Z,482.09
2022-09-02T15:50:59.808Z,482.44
2022-09-02T15:56:31.373Z,482.79
2022-09-02T16:02:03.380Z,482.96
2022-09-02T16:07:35.136Z,482.96
2022-09-02T16:13:06.733Z,484.01
2022-09-02T16:18:38.971Z,484.18
2022-09-02T16:24:10.392Z,484.53
2022-09-02T16:29:42.166Z,484.88
2022-09-02T16:35:13.986Z,485.06
2022-09-02T16:40:45.667Z,484.88
2022-09-02T16:46:18.204Z,484.88
2022-09-02T16:51:50.427Z,484.88
2022-09-02T16:57:22.164Z,484.88
2022-09-02T17:02:54.312Z,485.06
2022-09-02T17:08:25.714Z,485.23
2022-09-02T17:13:57.803Z,485.75
2022-09-02T17:19:32.320Z,485.93
2022-09-02T17:30:32.625Z,485.75
2022-09-02T17:41:33.722Z,485.93
2022-09-02T17:52:37.282Z,485.41
2022-09-02T17:58:09.328Z,485.75
2022-09-02T18:03:40.965Z,485.58
2022-09-02T18:20:11.592Z,484.88
2022-09-02T18:25:43.394Z,484.88
2022-09-02T18:31:15.162Z,484.18
2022-09-02T18:36:46.633Z,482.79
2022-09-02T18:42:18.286Z,482.09
2022-09-02T18:47:50.097Z,482.09
2022-09-02T18:53:21.378Z,482.26
2022-09-02T19:04:27.388Z,481.92
2022-09-02T19:09:55.808Z,481.65
2022-09-02T19:15:27.216Z,480.61
2022-09-02T19:26:28.166Z,479.74
2022-09-02T19:32:05.899Z,479.74
2022-09-02T19:37:44.212Z,480.08
2022-09-02T19:43:08.994Z,480.61
2022-09-02T19:48:40.693Z,480.78
2022-09-02T19:54:12.623Z,481.13
2022-09-02T19:59:44.427Z,481.13
2022-09-02T20:05:16.248Z,481.30
2022-09-02T20:16:17.738Z,479.91
2022-09-02T20:21:49.328Z,479.39
2022-09-02T20:32:51.097Z,479.74
2022-09-02T20:38:23.531Z,480.26
2022-09-02T20:43:56.067Z,480.43
2022-09-02T20:49:28.198Z,480.26
2022-09-02T20:57:20.593Z,480.61
2022-09-02T21:02:52.530Z,480.26
2022-09-02T21:08:24.398Z,480.61
2022-09-02T21:13:56.382Z,480.96
2022-09-02T21:19:27.821Z,480.78
2022-09-02T21:24:59.660Z,481.30
2022-09-02T21:30:31.605Z,480.96
2022-09-02T21:36:06.850Z,480.96
2022-09-02T21:41:38.434Z,480.78
2022-09-02T21:47:10.381Z,480.26
2022-09-02T21:52:42.267Z,480.43
2022-09-02T21:58:14.017Z,480.43
2022-09-02T22:03:45.763Z,480.61
2022-09-02T22:09:17.893Z,480.43
2022-09-02T22:22:39.212Z,480.26
2022-09-02T22:28:10.591Z,480.26
2022-09-02T22:39:16.721Z,480.78
2022-09-02T22:50:13.191Z,481.65
2022-09-02T22:55:45.267Z,481.92
2022-09-02T23:01:17.058Z,481.83
2022-09-02T23:06:48.629Z,481.30
2022-09-02T23:12:20.754Z,481.13
2022-09-02T23:17:52.319Z,481.30
2022-09-02T23:23:24.336Z,481.65
2022-09-02T23:28:56.168Z,481.65
2022-09-02T23:34:27.645Z,481.83
2022-09-02T23:39:59.527Z,482.09
2022-09-02T23:45:31.460Z,482.09
2022-09-02T23:51:03.380Z,482.44
2022-09-02T23:56:34.854Z,482.26
